sensor_id;sensor_type;location;lat;lon;timestamp;pressure;altitude;pressure_sealevel;temperature;humidity
58775;BME280;44545;47.480;19.024;2023-01-26T03:43:34;100758.59;;;2.87;97.04
58775;BME280;44545;47.480;19.024;2023-01-26T03:46:55;100758.59;;;2.87;97.04
58775;BME280;44545;47.480;19.024;2023-01-26T03:50:17;100754.25;;;2.39;99.81
58775;BME280;44545;47.480;19.024;2023-01-26T03:53:39;100763.50;;;2.37;98.39
58775;BME280;44545;47.480;19.024;2023-01-26T03:56:59;100751.69;;;2.39;97.06
58775;BME280;44545;47.480;19.024;2023-01-26T04:00:03;100746.53;;;2.39;96.71
58775;BME280;44545;47.480;19.024;2023-01-26T04:03:13;100749.56;;;2.35;97.28
58775;BME280;44545;47.480;19.024;2023-01-26T04:06:35;100751.22;;;2.44;99.05
58775;BME280;44545;47.480;19.024;2023-01-26T04:09:56;100753.78;;;2.44;99.10
58775;BME280;44545;47.480;19.024;2023-01-26T04:12:58;100740.03;;;2.43;98.38
58775;BME280;44545;47.480;19.024;2023-01-26T04:16:20;100748.94;;;2.38;97.47
58775;BME280;44545;47.480;19.024;2023-01-26T04:19:41;100748.06;;;2.37;99.53
58775;BME280;44545;47.480;19.024;2023-01-26T04:23:04;100745.28;;;2.45;97.40
58775;BME280;44545;47.480;19.024;2023-01-26T04:26:07;100739.59;;;2.38;98.31
58775;BME280;44545;47.480;19.024;2023-01-26T04:29:12;100739.59;;;2.38;98.12
58775;BME280;44545;47.480;19.024;2023-01-26T04:32:14;100733.91;;;2.51;97.52
58775;BME280;44545;47.480;19.024;2023-01-26T04:35:17;100726.81;;;2.49;97.18
58775;BME280;44545;47.480;19.024;2023-01-26T04:38:20;100723.81;;;2.44;97.15
58775;BME280;44545;47.480;19.024;2023-01-26T04:41:23;100724.16;;;2.38;96.66
58775;BME280;44545;47.480;19.024;2023-01-26T04:44:27;100724.00;;;2.37;96.14
58775;BME280;44545;47.480;19.024;2023-01-26T04:47:30;100732.94;;;2.41;97.48
58775;BME280;44545;47.480;19.024;2023-01-26T04:50:32;100725.94;;;2.39;96.40
58775;BME280;44545;47.480;19.024;2023-01-26T04:53:35;100723.84;;;2.35;95.99
58775;BME280;44545;47.480;19.024;2023-01-26T04:56:38;100722.28;;;2.46;96.76
58775;BME280;44545;47.480;19.024;2023-01-26T04:59:40;100721.06;;;2.43;96.63
58775;BME280;44545;47.480;19.024;2023-01-26T05:02:42;100718.06;;;2.38;96.34
58775;BME280;44545;47.480;19.024;2023-01-26T05:05:48;100718.31;;;2.31;98.31
58775;BME280;44545;47.480;19.024;2023-01-26T05:08:52;100725.66;;;2.36;97.29
58775;BME280;44545;47.480;19.024;2023-01-26T05:11:54;100724.25;;;2.21;98.43
58775;BME280;44545;47.480;19.024;2023-01-26T05:15:19;100724.47;;;2.33;97.58
58775;BME280;44545;47.480;19.024;2023-01-26T05:18:22;100728.37;;;2.38;95.45
58775;BME280;44545;47.480;19.024;2023-01-26T05:21:25;100720.44;;;2.26;95.97
58775;BME280;44545;47.480;19.024;2023-01-26T05:24:28;100715.75;;;2.22;97.08
58775;BME280;44545;47.480;19.024;2023-01-26T05:27:35;100713.44;;;2.34;96.94
58775;BME280;44545;47.480;19.024;2023-01-26T05:30:37;100722.63;;;2.41;97.60
58775;BME280;44545;47.480;19.024;2023-01-26T05:33:39;100723.53;;;2.41;97.81
58775;BME280;44545;47.480;19.024;2023-01-26T05:36:42;100712.03;;;2.37;97.10
58775;BME280;44545;47.480;19.024;2023-01-26T05:39:45;100714.19;;;2.33;96.44
58775;BME280;44545;47.480;19.024;2023-01-26T05:42:48;100721.69;;;2.21;97.35
58775;BME280;44545;47.480;19.024;2023-01-26T05:45:51;100727.12;;;2.24;97.16
58775;BME280;44545;47.480;19.024;2023-01-26T05:48:54;100735.28;;;2.20;97.89
58775;BME280;44545;47.480;19.024;2023-01-26T05:51:57;100724.53;;;2.24;98.17
58775;BME280;44545;47.480;19.024;2023-01-26T05:54:59;100735.44;;;2.22;97.87
58775;BME280;44545;47.480;19.024;2023-01-26T05:58:02;100733.50;;;2.19;97.31
58775;BME280;44545;47.480;19.024;2023-01-26T06:01:04;100727.19;;;2.15;98.65
58775;BME280;44545;47.480;19.024;2023-01-26T06:04:07;100735.19;;;2.19;97.79
58775;BME280;44545;47.480;19.024;2023-01-26T06:07:10;100739.06;;;2.24;95.74
58775;BME280;44545;47.480;19.024;2023-01-26T06:10:15;100732.25;;;2.24;94.96
58775;BME280;44545;47.480;19.024;2023-01-26T06:13:19;100725.34;;;2.14;94.44
58775;BME280;44545;47.480;19.024;2023-01-26T06:16:22;100726.13;;;2.13;93.67
58775;BME280;44545;47.480;19.024;2023-01-26T06:19:25;100727.19;;;2.15;93.86
58775;BME280;44545;47.480;19.024;2023-01-26T06:22:27;100735.59;;;1.95;94.91
58775;BME280;44545;47.480;19.024;2023-01-26T06:25:29;100730.06;;;2.10;94.91
58775;BME280;44545;47.480;19.024;2023-01-26T06:28:32;100727.56;;;2.20;92.58
58775;BME280;44545;47.480;19.024;2023-01-26T06:31:37;100736.06;;;2.19;92.69
58775;BME280;44545;47.480;19.024;2023-01-26T06:34:40;100729.41;;;2.21;91.90
58775;BME280;44545;47.480;19.024;2023-01-26T06:37:43;100733.50;;;2.19;92.24
58775;BME280;44545;47.480;19.024;2023-01-26T06:40:46;100722.16;;;2.17;92.11
58775;BME280;44545;47.480;19.024;2023-01-26T06:43:48;100728.06;;;2.16;92.24
58775;BME280;44545;47.480;19.024;2023-01-26T06:46:53;100725.97;;;2.12;92.45
58775;BME280;44545;47.480;19.024;2023-01-26T06:50:03;100728.31;;;2.00;92.85
58775;BME280;44545;47.480;19.024;2023-01-26T06:53:23;100715.56;;;2.10;92.59
58775;BME280;44545;47.480;19.024;2023-01-26T06:56:27;100720.56;;;2.09;92.53
58775;BME280;44545;47.480;19.024;2023-01-26T06:59:30;100707.97;;;2.12;91.26
58775;BME280;44545;47.480;19.024;2023-01-26T07:02:36;100709.78;;;2.13;91.13
58775;BME280;44545;47.480;19.024;2023-01-26T07:05:40;100711.13;;;2.18;90.69
58775;BME280;44545;47.480;19.024;2023-01-26T07:08:43;100711.41;;;2.21;90.91
58775;BME280;44545;47.480;19.024;2023-01-26T07:11:45;100714.25;;;2.24;91.26
58775;BME280;44545;47.480;19.024;2023-01-26T07:14:47;100706.16;;;2.11;91.76
58775;BME280;44545;47.480;19.024;2023-01-26T07:17:52;100710.06;;;2.16;91.06
58775;BME280;44545;47.480;19.024;2023-01-26T07:21:09;100704.50;;;2.30;90.99
58775;BME280;44545;47.480;19.024;2023-01-26T07:24:12;100698.78;;;2.05;90.51
58775;BME280;44545;47.480;19.024;2023-01-26T07:27:15;100707.00;;;2.20;91.23
58775;BME280;44545;47.480;19.024;2023-01-26T07:30:17;100701.22;;;2.23;91.47
58775;BME280;44545;47.480;19.024;2023-01-26T07:33:20;100698.72;;;2.33;91.32
58775;BME280;44545;47.480;19.024;2023-01-26T07:36:22;100698.72;;;2.33;90.96
58775;BME280;44545;47.480;19.024;2023-01-26T07:39:24;100694.37;;;2.32;89.78
58775;BME280;44545;47.480;19.024;2023-01-26T07:42:28;100685.56;;;2.38;89.18
58775;BME280;44545;47.480;19.024;2023-01-26T07:45:32;100685.63;;;2.49;89.38
58775;BME280;44545;47.480;19.024;2023-01-26T07:48:35;100691.50;;;2.48;87.68
58775;BME280;44545;47.480;19.024;2023-01-26T07:51:37;100692.06;;;2.35;87.36
58775;BME280;44545;47.480;19.024;2023-01-26T07:54:40;100699.66;;;2.33;87.36
58775;BME280;44545;47.480;19.024;2023-01-26T07:57:43;100697.72;;;2.31;87.76
58775;BME280;44545;47.480;19.024;2023-01-26T08:00:45;100698.09;;;2.35;88.66
58775;BME280;44545;47.480;19.024;2023-01-26T08:03:50;100692.03;;;2.44;86.23
58775;BME280;44545;47.480;19.024;2023-01-26T08:06:52;100691.13;;;2.43;85.00
58775;BME280;44545;47.480;19.024;2023-01-26T08:09:55;100700.22;;;2.39;84.81
58775;BME280;44545;47.480;19.024;2023-01-26T08:13:00;100700.00;;;2.47;84.64
58775;BME280;44545;47.480;19.024;2023-01-26T08:16:06;100701.41;;;2.43;85.63
58775;BME280;44545;47.480;19.024;2023-01-26T08:19:11;100699.75;;;2.44;86.41
58775;BME280;44545;47.480;19.024;2023-01-26T08:22:14;100696.38;;;2.45;85.17
58775;BME280;44545;47.480;19.024;2023-01-26T08:25:16;100688.63;;;2.53;85.55
58775;BME280;44545;47.480;19.024;2023-01-26T08:28:19;100688.94;;;2.48;85.48
58775;BME280;44545;47.480;19.024;2023-01-26T08:31:22;100696.59;;;2.37;85.73
58775;BME280;44545;47.480;19.024;2023-01-26T08:34:26;100695.06;;;2.39;85.82
58775;BME280;44545;47.480;19.024;2023-01-26T08:37:28;100696.53;;;2.46;86.21
58775;BME280;44545;47.480;19.024;2023-01-26T08:40:31;100693.81;;;2.45;85.95
58775;BME280;44545;47.480;19.024;2023-01-26T08:43:33;100690.41;;;2.54;84.69
58775;BME280;44545;47.480;19.024;2023-01-26T08:46:36;100695.13;;;2.50;85.93
58775;BME280;44545;47.480;19.024;2023-01-26T08:49:38;100696.72;;;2.58;84.90
58775;BME280;44545;47.480;19.024;2023-01-26T08:52:41;100686.03;;;2.53;84.83
58775;BME280;44545;47.480;19.024;2023-01-26T08:55:43;100683.44;;;2.72;84.23
58775;BME280;44545;47.480;19.024;2023-01-26T08:58:45;100686.97;;;2.83;84.12
58775;BME280;44545;47.480;19.024;2023-01-26T09:01:48;100685.22;;;2.92;84.12
58775;BME280;44545;47.480;19.024;2023-01-26T09:04:52;100688.91;;;2.86;84.08
58775;BME280;44545;47.480;19.024;2023-01-26T09:07:54;100688.81;;;2.84;83.38
58775;BME280;44545;47.480;19.024;2023-01-26T09:10:57;100683.50;;;2.82;84.11
58775;BME280;44545;47.480;19.024;2023-01-26T09:13:59;100689.22;;;2.89;83.73
58775;BME280;44545;47.480;19.024;2023-01-26T09:17:01;100686.31;;;3.04;83.46
58775;BME280;44545;47.480;19.024;2023-01-26T09:20:04;100685.31;;;3.13;83.33
58775;BME280;44545;47.480;19.024;2023-01-26T09:23:07;100685.44;;;3.04;82.65
58775;BME280;44545;47.480;19.024;2023-01-26T09:26:11;100684.87;;;3.27;83.15
58775;BME280;44545;47.480;19.024;2023-01-26T09:29:14;100681.37;;;3.26;81.23
58775;BME280;44545;47.480;19.024;2023-01-26T09:32:16;100683.94;;;3.26;81.79
58775;BME280;44545;47.480;19.024;2023-01-26T09:35:19;100681.63;;;3.19;82.44
58775;BME280;44545;47.480;19.024;2023-01-26T09:38:21;100681.63;;;3.19;81.83
58775;BME280;44545;47.480;19.024;2023-01-26T09:41:50;100667.59;;;3.26;81.53
58775;BME280;44545;47.480;19.024;2023-01-26T09:48:26;100666.88;;;3.08;82.40
58775;BME280;44545;47.480;19.024;2023-01-26T09:51:37;100669.59;;;3.10;82.19
58775;BME280;44545;47.480;19.024;2023-01-26T09:54:47;100662.53;;;3.17;81.56
58775;BME280;44545;47.480;19.024;2023-01-26T09:58:13;100661.66;;;3.17;82.38
58775;BME280;44545;47.480;19.024;2023-01-26T10:01:40;100657.56;;;3.00;82.63
58775;BME280;44545;47.480;19.024;2023-01-26T10:04:49;100647.75;;;2.96;82.83
58775;BME280;44545;47.480;19.024;2023-01-26T10:07:54;100649.06;;;3.01;82.70
58775;BME280;44545;47.480;19.024;2023-01-26T10:11:02;100635.06;;;2.78;85.50
58775;BME280;44545;47.480;19.024;2023-01-26T10:14:15;100629.69;;;2.86;86.05
58775;BME280;44545;47.480;19.024;2023-01-26T10:17:30;100621.03;;;3.04;86.28
58775;BME280;44545;47.480;19.024;2023-01-26T10:20:35;100625.94;;;3.21;84.23
58775;BME280;44545;47.480;19.024;2023-01-26T10:23:46;100615.78;;;3.23;84.10
58775;BME280;44545;47.480;19.024;2023-01-26T10:26:51;100613.53;;;2.97;83.76
58775;BME280;44545;47.480;19.024;2023-01-26T10:29:54;100611.38;;;3.12;84.34
58775;BME280;44545;47.480;19.024;2023-01-26T10:32:56;100607.50;;;3.07;83.88
58775;BME280;44545;47.480;19.024;2023-01-26T10:36:00;100598.81;;;2.96;83.18
58775;BME280;44545;47.480;19.024;2023-01-26T10:39:08;100594.22;;;3.02;82.38
58775;BME280;44545;47.480;19.024;2023-01-26T10:42:17;100593.47;;;3.13;80.92
58775;BME280;44545;47.480;19.024;2023-01-26T10:45:27;100596.59;;;3.19;81.95
58775;BME280;44545;47.480;19.024;2023-01-26T10:48:31;100600.97;;;3.20;81.49
58775;BME280;44545;47.480;19.024;2023-01-26T10:51:35;100592.28;;;2.99;81.91
58775;BME280;44545;47.480;19.024;2023-01-26T10:54:38;100597.09;;;3.15;83.88
58775;BME280;44545;47.480;19.024;2023-01-26T10:57:44;100591.38;;;2.99;83.59
58775;BME280;44545;47.480;19.024;2023-01-26T11:00:54;100579.84;;;2.85;85.09
58775;BME280;44545;47.480;19.024;2023-01-26T11:04:11;100588.00;;;2.90;88.52
58775;BME280;44545;47.480;19.024;2023-01-26T11:10:28;100573.25;;;2.78;88.11
58775;BME280;44545;47.480;19.024;2023-01-26T11:13:32;100573.41;;;2.80;87.59
58775;BME280;44545;47.480;19.024;2023-01-26T11:16:34;100566.31;;;2.77;87.75
58775;BME280;44545;47.480;19.024;2023-01-26T11:19:55;100562.91;;;2.97;88.68
58775;BME280;44545;47.480;19.024;2023-01-26T11:23:30;100562.66;;;2.94;87.49
58775;BME280;44545;47.480;19.024;2023-01-26T11:50:34;100539.72;;;2.97;83.23
58775;BME280;44545;47.480;19.024;2023-01-26T11:53:47;100522.22;;;3.14;82.73
58775;BME280;44545;47.480;19.024;2023-01-26T12:00:39;100514.50;;;3.24;82.89
58775;BME280;44545;47.480;19.024;2023-01-26T12:03:48;100509.75;;;3.39;81.10
58775;BME280;44545;47.480;19.024;2023-01-26T12:06:57;100500.09;;;3.36;82.12
58775;BME280;44545;47.480;19.024;2023-01-26T12:10:01;100499.72;;;3.42;81.71
58775;BME280;44545;47.480;19.024;2023-01-26T12:13:18;100490.41;;;3.64;
58775;BME280;44545;47.480;19.024;2023-01-26T12:20:42;100490.16;;;3.31;83.49
58775;BME280;44545;47.480;19.024;2023-01-26T12:24:03;100482.69;;;3.23;84.02
58775;BME280;44545;47.480;19.024;2023-01-26T12:27:17;100478.81;;;3.39;82.40
58775;BME280;44545;47.480;19.024;2023-01-26T12:30:33;100483.06;;;3.18;83.41
58775;BME280;44545;47.480;19.024;2023-01-26T12:33:37;100480.63;;;3.19;83.71
58775;BME280;44545;47.480;19.024;2023-01-26T12:36:49;100472.62;;;3.16;84.43
58775;BME280;44545;47.480;19.024;2023-01-26T12:40:04;100468.16;;;3.34;83.22
58775;BME280;44545;47.480;19.024;2023-01-26T12:46:13;100465.44;;;3.22;83.51
58775;BME280;44545;47.480;19.024;2023-01-26T12:49:24;100465.44;;;3.12;85.08
58775;BME280;44545;47.480;19.024;2023-01-26T12:52:50;100457.44;;;3.09;85.49
58775;BME280;44545;47.480;19.024;2023-01-26T12:59:17;100460.78;;;3.18;85.66
58775;BME280;44545;47.480;19.024;2023-01-26T13:02:44;100462.31;;;3.26;85.52
58775;BME280;44545;47.480;19.024;2023-01-26T13:09:19;100455.88;;;3.32;84.05
58775;BME280;44545;47.480;19.024;2023-01-26T13:22:38;100449.19;;;3.03;87.88
58775;BME280;44545;47.480;19.024;2023-01-26T13:25:48;100439.66;;;3.02;88.50
58775;BME280;44545;47.480;19.024;2023-01-26T13:35:28;100440.91;;;2.76;89.55
58775;BME280;44545;47.480;19.024;2023-01-26T13:38:37;100445.69;;;2.82;89.76
58775;BME280;44545;47.480;19.024;2023-01-26T13:41:45;100440.28;;;2.89;89.79
58775;BME280;44545;47.480;19.024;2023-01-26T13:45:00;100442.56;;;2.76;90.13
58775;BME280;44545;47.480;19.024;2023-01-26T13:48:17;100444.50;;;2.78;89.27
58775;BME280;44545;47.480;19.024;2023-01-26T13:51:27;100440.41;;;2.80;88.32
58775;BME280;44545;47.480;19.024;2023-01-26T13:54:30;100446.59;;;2.82;88.36
58775;BME280;44545;47.480;19.024;2023-01-26T13:57:33;100441.28;;;2.81;87.53
58775;BME280;44545;47.480;19.024;2023-01-26T14:00:36;100443.47;;;2.66;90.00
58775;BME280;44545;47.480;19.024;2023-01-26T14:03:38;100427.88;;;2.54;90.92
58775;BME280;44545;47.480;19.024;2023-01-26T14:06:51;100433.50;;;2.50;91.34
58775;BME280;44545;47.480;19.024;2023-01-26T14:09:57;100438.91;;;2.43;92.51
58775;BME280;44545;47.480;19.024;2023-01-26T14:13:03;100439.12;;;2.26;94.17
58775;BME280;44545;47.480;19.024;2023-01-26T14:16:06;100444.16;;;2.34;95.58
58775;BME280;44545;47.480;19.024;2023-01-26T14:19:18;100437.22;;;2.33;94.85
58775;BME280;44545;47.480;19.024;2023-01-26T14:22:22;100445.56;;;2.31;98.20
58775;BME280;44545;47.480;19.024;2023-01-26T14:25:24;100449.69;;;2.39;98.01
58775;BME280;44545;47.480;19.024;2023-01-26T14:28:33;100442.62;;;2.36;97.79
58775;BME280;44545;47.480;19.024;2023-01-26T14:31:36;100450.75;;;2.41;95.91
58775;BME280;44545;47.480;19.024;2023-01-26T14:34:50;100451.16;;;2.46;95.24
58775;BME280;44545;47.480;19.024;2023-01-26T14:38:12;100454.69;;;2.37;94.23
58775;BME280;44545;47.480;19.024;2023-01-26T14:41:16;100439.91;;;2.35;93.68
58775;BME280;44545;47.480;19.024;2023-01-26T14:44:19;100438.47;;;2.28;93.63
58775;BME280;44545;47.480;19.024;2023-01-26T14:47:28;100442.88;;;2.39;94.49
58775;BME280;44545;47.480;19.024;2023-01-26T14:50:33;100435.94;;;2.38;92.81
58775;BME280;44545;47.480;19.024;2023-01-26T14:53:37;100431.66;;;2.29;93.45
58775;BME280;44545;47.480;19.024;2023-01-26T14:56:39;100440.13;;;2.28;93.33
58775;BME280;44545;47.480;19.024;2023-01-26T14:59:43;100432.12;;;2.25;94.98
58775;BME280;44545;47.480;19.024;2023-01-26T15:02:51;100425.09;;;2.32;94.55
58775;BME280;44545;47.480;19.024;2023-01-26T15:09:26;100432.88;;;2.13;96.47
58775;BME280;44545;47.480;19.024;2023-01-26T15:12:33;100437.19;;;2.04;97.63
58775;BME280;44545;47.480;19.024;2023-01-26T15:15:41;100437.34;;;2.06;98.16
58775;BME280;44545;47.480;19.024;2023-01-26T15:18:44;100443.72;;;1.90;96.95
58775;BME280;44545;47.480;19.024;2023-01-26T15:21:46;100448.00;;;1.81;97.76
58775;BME280;44545;47.480;19.024;2023-01-26T15:25:12;100443.81;;;1.92;96.76
58775;BME280;44545;47.480;19.024;2023-01-26T15:28:21;100434.94;;;1.88;94.48
58775;BME280;44545;47.480;19.024;2023-01-26T15:31:49;100443.19;;;1.94;92.61
58775;BME280;44545;47.480;19.024;2023-01-26T15:34:46;100440.34;;;1.91;92.63
58775;BME280;44545;47.480;19.024;2023-01-26T15:37:59;100434.78;;;2.06;91.39
58775;BME280;44545;47.480;19.024;2023-01-26T15:41:01;100440.34;;;1.91;89.97
58775;BME280;44545;47.480;19.024;2023-01-26T15:44:04;100436.06;;;1.82;86.28
58775;BME280;44545;47.480;19.024;2023-01-26T15:47:08;100435.69;;;1.87;85.16
58775;BME280;44545;47.480;19.024;2023-01-26T15:50:12;100437.94;;;1.93;84.48
58775;BME280;44545;47.480;19.024;2023-01-26T15:53:28;100430.34;;;1.94;84.37
58775;BME280;44545;47.480;19.024;2023-01-26T15:56:31;100437.34;;;2.06;84.43
58775;BME280;44545;47.480;19.024;2023-01-26T15:59:34;100444.28;;;2.07;82.18
58775;BME280;44545;47.480;19.024;2023-01-26T16:02:36;100437.97;;;2.03;81.31
58775;BME280;44545;47.480;19.024;2023-01-26T16:05:38;100442.66;;;1.88;79.04
58775;BME280;44545;47.480;19.024;2023-01-26T16:08:41;100453.56;;;1.86;79.99
58775;BME280;44545;47.480;19.024;2023-01-26T16:11:47;100436.41;;;1.95;80.09
58775;BME280;44545;47.480;19.024;2023-01-26T16:14:49;100441.81;;;1.98;79.58
58775;BME280;44545;47.480;19.024;2023-01-26T16:17:52;100443.53;;;2.08;80.55
